This is the latest recevied weather packets stored in our database for station/object JG6YPS-13. If no packets are shown the sender has not sent any weather packets the latest 1 day(s).
| Time | Temp. | Humidity | Pressure | Rain* | Wind** | Luminosity | Snow |
|---|---|---|---|---|---|---|---|
| 1778103310 | 18.33° C | 83% | 1015.1 hPa | 0 mm | - | - | - |
| 1778100314 | 16.67° C | 89% | 1015 hPa | 0 mm | - | - | - |
| 1778099116 | 16.67° C | 89% | 1014.9 hPa | 0 mm | - | - | - |
| 1778098517 | 16.67° C | 89% | 1014.9 hPa | 0 mm | - | - | - |
| 1778097918 | 16.67° C | 89% | 1015 hPa | 0 mm | - | - | - |
| 1778095521 | 16.11° C | 89% | 1014.9 hPa | 0 mm | - | - | - |
| 1778093723 | 16.67° C | 88% | 1014.8 hPa | 0 mm | - | - | - |
| 1778091925 | 16.67° C | 87% | 1015.2 hPa | 0 mm | - | - | - |
| 1778089528 | 16.67° C | 87% | 1015.2 hPa | 0 mm | - | - | - |
| 1778087131 | 16.67° C | 87% | 1015.5 hPa | 0 mm | - | - | - |
| 1778082937 | 16.67° C | 86% | 1015.9 hPa | 0 mm | - | - | - |
| 1778082338 | 17.22° C | 85% | 1016.1 hPa | 0 mm | - | - | - |
| 1778079342 | 17.78° C | 84% | 1016.7 hPa | 0 mm | - | - | - |
| 1778077544 | 17.22° C | 85% | 1017 hPa | 0 mm | - | - | - |
| 1778076945 | 17.22° C | 85% | 1016.9 hPa | 0 mm | - | - | - |
| 1778075746 | 17.78° C | 84% | 1016.8 hPa | 0 mm | - | - | - |
| 1778073948 | 17.78° C | 83% | 1016.7 hPa | 0 mm | - | - | - |
| 1778073349 | 17.78° C | 84% | 1016.8 hPa | 0 mm | - | - | - |
| 1778071551 | 17.78° C | 82% | 1016.8 hPa | 0 mm | - | - | - |
| 1778069753 | 18.33° C | 81% | 1016.6 hPa | 0 mm | - | - | - |
| 1778067955 | 18.33° C | 80% | 1016.4 hPa | 0 mm | - | - | - |
| 1778066756 | 18.33° C | 79% | 1016.4 hPa | 0 mm | - | - | - |
| 1778065557 | 18.89° C | 78% | 1016.2 hPa | 0 mm | - | - | - |
| 1778062560 | 19.44° C | 76% | 1015.6 hPa | 0 mm | - | - | - |
| 1778061361 | 20.56° C | 68% | 1015.4 hPa | 0 mm | - | - | - |
* Rain latest hour (hover to see other rain measurements)
** Current wind speed in m/s (hover to see current wind gust speed)